Concordia College, Minnesota
Current Conditions -  °F | °C
As of 2:53 AM on Tuesday 21 Oct 2014 (Local Time) from KFAR Reporting Station
Clear Clear  
Wind Chill: 39°   Ceiling: Unl
Heat Index: 45°   Visibility: 10mi
Dew Point: 38°   Wind: 12mph
Humidity: 76%   Direction: 130°SE
Pressure: 30.06"   Gusts: NA
Location:  46.8619°N, 96.7661°W
Report Text: KFAR 210753Z 13010KT 10SM CLR 07/03 A3006 RMK AO2 SLP183 T00720033
Loading
Personal Weather Stations






























Interactive Weather Map
Tropical Storm Tracking
New forecast layout! Learn more

10-Day Weather Forecast

Advertisements
Track Severe Weather on mobile